Time;durP1;ratioP1;P1;durP2;ratioP2;P2;SDS_P1;SDS_P2;PMS_P1;PMS_P2;Temp;Humidity;BMP_temperature;BMP_pressure;BME280_temperature;BME280_humidity;BME280_pressure;Samples;Min_cycle;Max_cycle;Signal;HPM_P1;HPM_P2
2021/07/25 00:00:07;;;;;;;;;;;;;;;27.10;49.47;100871.00;4941058;29;19929;-85
2021/07/25 00:02:33;;;;;;;;;;;;;;;27.18;49.10;100862.63;4941951;29;19954;-85
2021/07/25 00:04:58;;;;;;;;;;;;;;;27.07;49.43;100868.59;4942121;29;19919;-88
2021/07/25 00:07:24;;;;;;;;;;;;;;;25.73;54.57;100864.47;4941806;29;19934;-86
2021/07/25 00:09:49;;;;;;;;;;;;;;;26.51;52.48;100863.91;4942178;29;19961;-84
2021/07/25 00:12:14;;;;;;;;;;;;;;;26.16;53.14;100857.75;4959706;29;20005;-86
2021/07/25 00:14:40;;;;;;;;;;;;;;;26.42;52.69;100851.09;4960305;29;19919;-88
2021/07/25 00:17:05;;;;;;;;;;;;;;;26.79;51.39;100852.38;4942764;29;20459;-90
2021/07/25 00:19:31;;;;;;;;;;;;;;;26.82;50.83;100856.72;4942444;29;19953;-87
2021/07/25 00:21:57;;;;;;;;;;;;;;;27.06;50.06;100861.31;4959968;29;20422;-87
2021/07/25 00:24:29;;;;;;;;;;;;;;;27.01;50.39;100858.19;4960078;28;19923;-87
2021/07/25 00:26:56;;;;;;;;;;;;;;;26.98;49.95;100858.53;4943091;29;19919;-82
2021/07/25 00:29:22;;;;;;;;;;;;;;;27.12;49.69;100855.03;4942370;29;20009;-85
2021/07/25 00:31:47;;;;;;;;;;;;;;;27.07;50.18;100849.16;4943723;29;20028;-86
2021/07/25 00:34:12;;;;;;;;;;;;;;;26.97;50.78;100859.63;4943516;29;19918;-88
2021/07/25 00:36:37;;;;;;;;;;;;;;;27.00;50.87;100850.91;4960454;29;19932;-84
2021/07/25 00:39:07;;;;;;;;;;;;;;;26.81;51.73;100852.22;4943309;29;19925;-89
2021/07/25 00:41:33;;;;;;;;;;;;;;;27.09;50.97;100855.38;4943444;29;20285;-88
2021/07/25 00:43:59;;;;;;;;;;;;;;;27.23;50.46;100865.69;4943525;29;19943;-87
2021/07/25 00:46:24;;;;;;;;;;;;;;;27.45;49.53;100860.41;4942845;29;19925;-87
2021/07/25 00:48:50;;;;;;;;;;;;;;;27.34;49.98;100849.72;4943192;29;19919;-87
2021/07/25 00:51:15;;;;;;;;;;;;;;;27.01;51.21;100859.06;4960595;29;20488;-87
2021/07/25 00:53:42;;;;;;;;;;;;;;;26.59;52.88;100853.84;4960961;29;19914;-88
2021/07/25 00:56:10;;;;;;;;;;;;;;;26.57;52.85;100856.75;4943357;29;19974;-87
2021/07/25 00:58:40;;;;;;;;;;;;;;;26.84;51.89;100841.63;4943899;29;19918;-85
2021/07/25 01:01:10;;;;;;;;;;;;;;;26.82;51.83;100838.16;4961461;29;19925;-87
2021/07/25 01:03:45;;;;;;;;;;;;;;;27.26;50.25;100846.97;4961511;29;19956;-85
2021/07/25 01:06:10;;;;;;;;;;;;;;;27.35;49.85;100837.56;4945391;29;19965;-86
2021/07/25 01:08:50;;;;;;;;;;;;;;;26.71;50.89;100835.78;4960443;29;19919;-90
2021/07/25 01:11:15;;;;;;;;;;;;;;;26.75;49.80;100841.81;4944914;29;19964;-86
2021/07/25 01:13:42;;;;;;;;;;;;;;;26.66;50.04;100843.72;4962705;29;19918;-90
2021/07/25 01:16:08;;;;;;;;;;;;;;;26.74;50.02;100848.41;4965999;28;20020;-89
2021/07/25 01:18:43;;;;;;;;;;;;;;;26.87;49.64;100832.94;4949636;29;19918;-87
2021/07/25 01:21:08;;;;;;;;;;;;;;;26.84;49.79;100833.31;4948505;29;19919;-86
2021/07/25 01:23:34;;;;;;;;;;;;;;;26.80;50.08;100831.03;4947373;29;19991;-86
2021/07/25 01:26:01;;;;;;;;;;;;;;;26.70;51.04;100828.50;4965350;29;19919;-88
2021/07/25 01:28:29;;;;;;;;;;;;;;;26.29;53.38;100835.00;4966202;29;19919;-83
2021/07/25 01:30:55;;;;;;;;;;;;;;;26.28;53.26;100827.69;4949400;29;20391;-87
2021/07/25 01:33:22;;;;;;;;;;;;;;;26.47;52.91;100834.78;4949433;29;20257;-87
2021/07/25 01:35:48;;;;;;;;;;;;;;;26.55;52.56;100841.34;4966056;28;19978;-87
2021/07/25 01:38:14;;;;;;;;;;;;;;;26.92;51.32;100831.50;4948619;29;19966;-88
2021/07/25 01:40:39;;;;;;;;;;;;;;;26.93;50.79;100833.25;4947601;29;19919;-88
2021/07/25 01:43:07;;;;;;;;;;;;;;;26.46;52.04;100833.03;4965276;29;19922;-85
2021/07/25 01:45:32;;;;;;;;;;;;;;;26.77;50.04;100845.28;4947332;29;19997;-83
2021/07/25 01:47:57;;;;;;;;;;;;;;;26.57;50.30;100833.69;4947670;29;20316;-88
2021/07/25 01:50:23;;;;;;;;;;;;;;;26.79;49.39;100845.97;4947892;29;19918;-86
2021/07/25 01:52:49;;;;;;;;;;;;;;;26.93;48.75;100845.22;4948226;29;19918;-90
2021/07/25 01:55:14;;;;;;;;;;;;;;;26.60;50.02;100837.00;4948922;29;20456;-90
2021/07/25 01:57:39;;;;;;;;;;;;;;;26.67;49.83;100840.81;4948403;29;19919;-90
2021/07/25 02:00:05;;;;;;;;;;;;;;;26.96;49.10;100844.00;4948089;29;20324;-84
2021/07/25 02:02:31;;;;;;;;;;;;;;;26.45;50.91;100842.41;4948120;29;20284;-86
2021/07/25 02:04:56;;;;;;;;;;;;;;;26.82;49.51;100838.16;4948794;29;19922;-87
2021/07/25 02:07:21;;;;;;;;;;;;;;;26.78;49.08;100831.22;4948459;29;19930;-87
2021/07/25 02:09:46;;;;;;;;;;;;;;;26.50;49.84;100823.31;4948230;29;20371;-88
2021/07/25 02:12:12;;;;;;;;;;;;;;;26.72;49.17;100829.16;4948506;29;19925;-88
2021/07/25 02:14:37;;;;;;;;;;;;;;;26.77;48.88;100829.50;4948351;29;19978;-87
2021/07/25 02:17:04;;;;;;;;;;;;;;;26.98;48.34;100833.56;4965175;29;20382;-87
2021/07/25 02:19:29;;;;;;;;;;;;;;;26.81;48.88;100818.91;4948718;29;19925;-85
2021/07/25 02:21:54;;;;;;;;;;;;;;;26.64;49.26;100812.53;4947857;29;19982;-86
2021/07/25 02:24:20;;;;;;;;;;;;;;;26.76;49.30;100816.66;4947615;29;19929;-85
2021/07/25 02:26:45;;;;;;;;;;;;;;;26.46;49.88;100808.06;4948526;29;20028;-86
2021/07/25 02:29:10;;;;;;;;;;;;;;;26.39;50.28;100812.63;4965357;28;20289;-88
2021/07/25 02:31:36;;;;;;;;;;;;;;;26.69;49.27;100818.41;4947970;29;20482;-85
2021/07/25 02:34:01;;;;;;;;;;;;;;;26.75;49.12;100806.59;4947925;29;19919;-85
2021/07/25 02:36:26;;;;;;;;;;;;;;;26.51;49.91;100802.88;4948098;29;20009;-88
2021/07/25 02:38:51;;;;;;;;;;;;;;;26.78;49.07;100802.59;4948880;29;19918;-86
2021/07/25 02:41:17;;;;;;;;;;;;;;;26.82;48.82;100793.75;4964567;29;20461;-87
2021/07/25 02:43:42;;;;;;;;;;;;;;;26.78;49.06;100789.59;4961676;29;19914;-87
2021/07/25 02:46:07;;;;;;;;;;;;;;;27.24;47.69;100786.03;4960217;29;19970;-85
2021/07/25 02:48:32;;;;;;;;;;;;;;;27.05;47.84;100774.38;4978742;28;19926;-86
2021/07/25 02:50:59;;;;;;;;;;;;;;;27.36;47.31;100779.03;4960391;29;19953;-86
2021/07/25 02:53:25;;;;;;;;;;;;;;;27.08;47.52;100775.03;4952697;29;19919;-85
2021/07/25 02:55:51;;;;;;;;;;;;;;;27.17;47.61;100774.78;4949069;29;19918;-88
2021/07/25 02:58:16;;;;;;;;;;;;;;;26.78;48.91;100772.06;4965708;29;19945;-87
2021/07/25 03:00:41;;;;;;;;;;;;;;;26.88;49.05;100776.34;4965813;29;19937;-90
2021/07/25 03:03:06;;;;;;;;;;;;;;;26.91;48.93;100777.91;4964861;29;19985;-88
2021/07/25 03:05:32;;;;;;;;;;;;;;;26.88;49.17;100770.78;4947123;29;19924;-88
2021/07/25 03:07:57;;;;;;;;;;;;;;;26.87;49.20;100780.19;4947781;29;20007;-87
2021/07/25 03:10:22;;;;;;;;;;;;;;;26.35;51.52;100778.81;4965028;29;19918;-86
2021/07/25 03:12:47;;;;;;;;;;;;;;;26.42;51.94;100781.75;4964705;29;19926;-90
2021/07/25 03:15:13;;;;;;;;;;;;;;;26.49;51.70;100785.50;4947891;29;20030;-87
2021/07/25 03:17:38;;;;;;;;;;;;;;;25.87;53.43;100788.94;4947537;29;19925;-90
2021/07/25 03:20:03;;;;;;;;;;;;;;;26.03;53.62;100784.44;4964370;29;19918;-85
2021/07/25 03:22:29;;;;;;;;;;;;;;;26.35;52.40;100798.22;4946665;29;19918;-87
2021/07/25 03:24:54;;;;;;;;;;;;;;;26.44;52.00;100798.22;4946947;29;19930;-85
2021/07/25 03:27:19;;;;;;;;;;;;;;;26.02;53.18;100800.22;4947149;29;20398;-86
2021/07/25 03:29:44;;;;;;;;;;;;;;;25.78;53.99;100788.06;4947470;29;19918;-88
2021/07/25 03:32:10;;;;;;;;;;;;;;;26.32;52.25;100786.63;4947911;29;19925;-90
2021/07/25 03:34:35;;;;;;;;;;;;;;;26.10;52.87;100797.41;4964645;28;19918;-89
2021/07/25 03:37:02;;;;;;;;;;;;;;;26.02;52.77;100791.91;4947098;29;19974;-88
2021/07/25 03:39:28;;;;;;;;;;;;;;;25.72;53.45;100796.22;4946578;29;19930;-88
2021/07/25 03:41:53;;;;;;;;;;;;;;;26.45;50.93;100786.94;4963645;28;19918;-90
2021/07/25 03:44:19;;;;;;;;;;;;;;;26.74;49.80;100785.47;4946926;29;19918;-85
2021/07/25 03:46:44;;;;;;;;;;;;;;;26.76;49.56;100790.84;4947048;29;20439;-90
2021/07/25 03:49:10;;;;;;;;;;;;;;;26.75;49.47;100789.09;4946952;29;20288;-87
2021/07/25 03:51:38;;;;;;;;;;;;;;;26.62;49.79;100792.44;4946887;29;19914;-89
2021/07/25 03:54:06;;;;;;;;;;;;;;;26.39;50.26;100786.78;4946856;29;19918;-87
2021/07/25 03:56:33;;;;;;;;;;;;;;;26.65;49.07;100783.75;4963328;29;19925;-86
2021/07/25 03:58:58;;;;;;;;;;;;;;;25.97;50.09;100780.44;4945812;29;19925;-88
2021/07/25 04:01:24;;;;;;;;;;;;;;;25.82;50.56;100783.91;4963665;29;19919;-87
2021/07/25 04:03:49;;;;;;;;;;;;;;;26.16;49.23;100780.09;4962818;29;19925;-88
2021/07/25 04:06:14;;;;;;;;;;;;;;;25.81;49.76;100773.84;4945102;29;19925;-86
2021/07/25 04:08:40;;;;;;;;;;;;;;;26.15;48.82;100774.72;4945568;29;19942;-88
2021/07/25 04:11:05;;;;;;;;;;;;;;;26.30;48.56;100772.06;4946825;29;19924;-87
2021/07/25 04:13:30;;;;;;;;;;;;;;;26.32;48.82;100770.00;4962710;29;19918;-89
2021/07/25 04:15:55;;;;;;;;;;;;;;;26.10;49.88;100763.28;4961931;29;19941;-88
2021/07/25 04:18:21;;;;;;;;;;;;;;;26.10;49.66;100766.91;4946054;29;19926;-86
2021/07/25 04:20:46;;;;;;;;;;;;;;;26.50;48.94;100765.06;4944655;29;20404;-88
2021/07/25 04:23:11;;;;;;;;;;;;;;;26.84;47.51;100763.91;4944989;28;19933;-88
2021/07/25 04:25:36;;;;;;;;;;;;;;;26.76;47.87;100772.25;4946337;29;19922;-87
2021/07/25 04:28:02;;;;;;;;;;;;;;;26.81;47.93;100763.38;4963584;29;19926;-89
2021/07/25 04:30:28;;;;;;;;;;;;;;;26.76;48.05;100758.38;4964371;29;19923;-91
2021/07/25 04:32:54;;;;;;;;;;;;;;;26.86;47.87;100764.56;4946165;29;19925;-89
2021/07/25 04:35:20;;;;;;;;;;;;;;;26.75;48.45;100776.06;4945333;29;19918;-84
2021/07/25 04:37:49;;;;;;;;;;;;;;;26.87;47.83;100768.22;4944825;29;19926;-89
2021/07/25 04:40:15;;;;;;;;;;;;;;;27.10;47.59;100772.94;4947061;29;20086;-90
2021/07/25 04:42:44;;;;;;;;;;;;;;;26.30;49.94;100772.06;4944120;29;19925;-86
2021/07/25 04:45:10;;;;;;;;;;;;;;;26.56;49.47;100768.16;4945146;29;19941;-87
2021/07/25 04:47:39;;;;;;;;;;;;;;;25.41;53.75;100767.31;4948226;29;20398;-86
2021/07/25 04:50:07;;;;;;;;;;;;;;;26.67;49.43;100763.09;4964713;29;19922;-85
2021/07/25 04:52:36;;;;;;;;;;;;;;;26.80;48.76;100768.09;4931399;29;19919;-87
2021/07/25 04:55:02;;;;;;;;;;;;;;;26.95;48.67;100772.84;4947324;29;19919;-84
2021/07/25 04:57:29;;;;;;;;;;;;;;;26.77;49.37;100774.00;4947769;29;19929;-87
2021/07/25 04:59:56;;;;;;;;;;;;;;;26.34;51.00;100776.22;4950005;29;19923;-84
2021/07/25 05:02:24;;;;;;;;;;;;;;;26.86;49.34;100774.81;4950300;29;19974;-88
2021/07/25 05:04:50;;;;;;;;;;;;;;;26.62;50.05;100775.78;4966679;29;19925;-87
2021/07/25 05:07:15;;;;;;;;;;;;;;;26.62;49.74;100775.78;4949229;29;19923;-86
2021/07/25 05:09:41;;;;;;;;;;;;;;;26.84;49.26;100775.00;4950174;29;19929;-87
2021/07/25 05:12:12;;;;;;;;;;;;;;;26.90;49.29;100773.41;4949129;29;20042;-85
2021/07/25 05:14:49;;;;;;;;;;;;;;;26.60;50.22;100777.84;4966237;29;19922;-88
2021/07/25 05:17:22;;;;;;;;;;;;;;;26.63;50.39;100777.50;4948241;29;19919;-88
2021/07/25 05:19:56;;;;;;;;;;;;;;;26.24;51.15;100778.31;4952674;29;19922;-86
2021/07/25 05:22:24;;;;;;;;;;;;;;;26.44;50.49;100785.19;4967548;29;19919;-88
2021/07/25 05:24:50;;;;;;;;;;;;;;;26.63;50.10;100789.47;4948236;29;19922;-86
2021/07/25 05:27:22;;;;;;;;;;;;;;;26.56;50.52;100788.47;4948040;29;19953;-90
2021/07/25 05:29:49;;;;;;;;;;;;;;;26.85;48.62;100787.81;4962901;29;19938;-85
2021/07/25 05:32:15;;;;;;;;;;;;;;;27.14;48.37;100791.81;4946618;29;19955;-89
2021/07/25 05:34:40;;;;;;;;;;;;;;;27.03;48.47;100795.88;4945485;29;19918;-86
2021/07/25 05:37:05;;;;;;;;;;;;;;;26.84;49.05;100785.22;4962522;29;20021;-85
2021/07/25 05:39:30;;;;;;;;;;;;;;;26.69;49.60;100788.78;4944157;29;19926;-88
2021/07/25 05:41:55;;;;;;;;;;;;;;;26.76;49.71;100797.25;4960165;29;20300;-85
2021/07/25 05:44:21;;;;;;;;;;;;;;;26.25;50.70;100796.69;4942715;29;19919;-87
2021/07/25 05:46:46;;;;;;;;;;;;;;;26.70;49.82;100792.41;4943044;29;19982;-87
2021/07/25 05:49:11;;;;;;;;;;;;;;;26.67;49.71;100790.84;4942176;29;19918;-88
2021/07/25 05:51:36;;;;;;;;;;;;;;;27.45;47.62;100798.41;4942617;29;19942;-88
2021/07/25 05:54:02;;;;;;;;;;;;;;;26.51;50.87;100800.09;4958993;29;19941;-85
2021/07/25 05:56:27;;;;;;;;;;;;;;;27.29;48.67;100789.13;4959761;28;19954;-88
2021/07/25 05:58:52;;;;;;;;;;;;;;;26.98;48.69;100791.91;4941807;29;20001;-87
2021/07/25 06:01:17;;;;;;;;;;;;;;;28.34;46.41;100792.22;4960040;29;19922;-86
2021/07/25 06:03:42;;;;;;;;;;;;;;;27.51;47.46;100794.91;4974306;28;19918;-83
2021/07/25 06:06:08;;;;;;;;;;;;;;;27.19;48.39;100794.03;4982034;28;19921;-85
2021/07/25 06:08:33;;;;;;;;;;;;;;;28.60;44.64;100798.19;4961315;29;19933;-83
2021/07/25 06:10:59;;;;;;;;;;;;;;;28.00;46.25;100808.38;4946199;29;20398;-84
2021/07/25 06:13:24;;;;;;;;;;;;;;;28.24;46.07;100798.94;4959302;29;20396;-86
2021/07/25 06:15:50;;;;;;;;;;;;;;;27.65;47.41;100794.09;4940658;29;20423;-86
2021/07/25 06:18:15;;;;;;;;;;;;;;;27.59;47.80;100809.59;4958242;29;19918;-85
2021/07/25 06:20:40;;;;;;;;;;;;;;;26.70;49.68;100797.97;4958332;29;19925;-86
2021/07/25 06:23:06;;;;;;;;;;;;;;;27.52;48.09;100805.84;4940307;29;19919;-86
2021/07/25 06:25:32;;;;;;;;;;;;;;;27.63;47.53;100795.31;4940609;29;20010;-86
2021/07/25 06:27:59;;;;;;;;;;;;;;;27.66;46.94;100797.72;4958537;29;19923;-86
2021/07/25 06:30:25;;;;;;;;;;;;;;;26.81;49.62;100800.34;4941463;29;20435;-86
2021/07/25 06:33:01;;;;;;;;;;;;;;;26.82;49.21;100798.44;4958228;29;19953;-85
2021/07/25 06:35:28;;;;;;;;;;;;;;;27.05;49.27;100793.81;4940739;29;19946;-84
2021/07/25 06:37:53;;;;;;;;;;;;;;;27.34;48.65;100785.81;4958121;29;19934;-85
2021/07/25 06:40:18;;;;;;;;;;;;;;;27.77;47.83;100794.50;4941088;29;19918;-85
2021/07/25 06:42:44;;;;;;;;;;;;;;;26.81;50.51;100792.03;4940554;29;19919;-85
2021/07/25 06:45:09;;;;;;;;;;;;;;;26.32;51.58;100797.72;4941234;29;19919;-85
2021/07/25 06:47:34;;;;;;;;;;;;;;;27.22;49.94;100789.00;4940728;29;19918;-85
2021/07/25 06:50:02;;;;;;;;;;;;;;;27.29;49.07;100794.66;4939992;29;19919;-86
2021/07/25 06:52:27;;;;;;;;;;;;;;;27.02;50.52;100796.91;4939723;29;19926;-87
2021/07/25 06:54:52;;;;;;;;;;;;;;;27.87;48.21;100786.78;4958092;29;19918;-84
2021/07/25 06:57:18;;;;;;;;;;;;;;;27.57;48.68;100780.28;4940774;29;19918;-84
2021/07/25 06:59:43;;;;;;;;;;;;;;;28.18;47.10;100783.00;4940548;29;20009;-87
2021/07/25 07:02:08;;;;;;;;;;;;;;;27.27;49.52;100785.66;4957512;29;19925;-86
2021/07/25 07:04:33;;;;;;;;;;;;;;;27.08;50.96;100781.44;4957506;29;19922;-85
2021/07/25 07:06:58;;;;;;;;;;;;;;;27.33;50.47;100781.34;4958112;29;19942;-87
2021/07/25 07:09:24;;;;;;;;;;;;;;;27.18;50.60;100779.31;4956964;28;20422;-84
2021/07/25 07:11:49;;;;;;;;;;;;;;;28.20;47.65;100785.59;4939667;29;20435;-85
2021/07/25 07:14:14;;;;;;;;;;;;;;;27.71;49.35;100785.00;4940432;29;20407;-87
2021/07/25 07:16:39;;;;;;;;;;;;;;;27.70;49.23;100791.59;4941306;29;20439;-87
2021/07/25 07:19:05;;;;;;;;;;;;;;;27.31;49.88;100791.72;4957047;29;19922;-84
2021/07/25 07:21:30;;;;;;;;;;;;;;;28.21;47.50;100790.97;4939848;29;19918;-86
2021/07/25 07:23:55;;;;;;;;;;;;;;;27.84;48.21;100789.94;4939016;29;20356;-86
2021/07/25 07:26:21;;;;;;;;;;;;;;;29.26;45.03;100788.09;4939408;29;19918;-86
2021/07/25 07:28:46;;;;;;;;;;;;;;;28.88;45.61;100791.06;4935710;29;19931;-83
2021/07/25 07:31:11;;;;;;;;;;;;;;;28.57;46.51;100797.69;4926248;29;19919;-86
2021/07/25 07:33:37;;;;;;;;;;;;;;;28.22;47.65;100802.97;4940276;29;19923;-86
2021/07/25 07:36:02;;;;;;;;;;;;;;;29.24;44.17;100793.88;4938859;29;19919;-86
2021/07/25 07:38:27;;;;;;;;;;;;;;;27.90;47.75;100800.31;4939573;29;20037;-86
2021/07/25 07:40:52;;;;;;;;;;;;;;;28.98;44.96;100799.97;4955947;29;19919;-86
2021/07/25 07:43:18;;;;;;;;;;;;;;;29.16;44.50;100802.31;4956402;29;19941;-85
2021/07/25 07:45:44;;;;;;;;;;;;;;;29.03;45.58;100813.31;4939489;29;20284;-86
2021/07/25 07:48:10;;;;;;;;;;;;;;;28.91;44.77;100799.03;4939704;29;19919;-87
2021/07/25 07:50:35;;;;;;;;;;;;;;;29.03;45.45;100807.75;4963929;28;19918;-87
2021/07/25 07:53:00;;;;;;;;;;;;;;;28.93;44.79;100814.47;4956619;29;19918;-86
2021/07/25 07:55:27;;;;;;;;;;;;;;;28.89;45.26;100815.91;4956107;29;19923;-88
2021/07/25 07:57:52;;;;;;;;;;;;;;;28.78;44.69;100811.72;4966546;28;19943;-86
2021/07/25 08:00:18;;;;;;;;;;;;;;;29.23;43.42;100808.00;4971682;28;20527;-87
2021/07/25 08:05:12;;;;;;;;;;;;;;;29.23;43.98;100791.28;4991346;23;19933;-85
2021/07/25 08:07:37;;;;;;;;;;;;;;;30.25;41.44;100795.66;4937548;29;20180;-83
2021/07/25 08:10:03;;;;;;;;;;;;;;;29.63;42.47;100798.13;4936456;29;19919;-85
2021/07/25 08:12:28;;;;;;;;;;;;;;;29.72;41.89;100793.28;4903673;29;19927;-84
2021/07/25 08:14:53;;;;;;;;;;;;;;;30.72;39.98;100795.94;4919734;29;19919;-82
2021/07/25 08:17:20;;;;;;;;;;;;;;;29.52;42.38;100801.47;4920155;29;19919;-84
2021/07/25 08:19:46;;;;;;;;;;;;;;;30.41;40.69;100800.09;4919700;29;19926;-85
2021/07/25 08:22:11;;;;;;;;;;;;;;;29.41;43.01;100805.66;4919399;29;19923;-83
2021/07/25 08:24:39;;;;;;;;;;;;;;;30.50;41.26;100795.22;4936623;29;19918;-85
2021/07/25 08:27:05;;;;;;;;;;;;;;;31.36;39.06;100797.50;4904395;29;19929;-84
2021/07/25 08:29:30;;;;;;;;;;;;;;;30.50;41.04;100803.59;4936962;29;19926;-85
2021/07/25 08:31:57;;;;;;;;;;;;;;;30.64;40.40;100804.50;4920123;29;19923;-86
2021/07/25 08:34:23;;;;;;;;;;;;;;;30.40;41.03;100810.38;4936818;29;20284;-84
2021/07/25 08:36:48;;;;;;;;;;;;;;;30.42;40.47;100809.31;4920185;29;20013;-85
2021/07/25 08:39:14;;;;;;;;;;;;;;;31.14;39.12;100815.50;4940110;29;20293;-83
2021/07/25 08:41:59;;;;;;;;;;;;;;;30.45;41.17;100812.53;4925636;29;20377;-85
2021/07/25 08:44:45;;;;;;;;;;;;;;;31.66;38.35;100808.34;4925783;29;19942;-87
2021/07/25 08:47:18;;;;;;;;;;;;;;;32.60;36.22;100813.88;4923917;29;20277;-83
2021/07/25 08:49:49;;;;;;;;;;;;;;;31.91;37.50;100814.16;4923765;29;19925;-87
2021/07/25 08:52:19;;;;;;;;;;;;;;;31.79;37.65;100811.13;4922793;29;20325;-85
2021/07/25 08:54:44;;;;;;;;;;;;;;;31.37;39.19;100807.59;4923107;29;20481;-87
2021/07/25 08:57:14;;;;;;;;;;;;;;;32.25;36.96;100816.94;4925908;29;19923;-87
2021/07/25 08:59:42;;;;;;;;;;;;;;;31.76;37.44;100819.09;4925406;29;19963;-86
2021/07/25 09:02:15;;;;;;;;;;;;;;;32.12;36.99;100818.69;4921362;29;19926;-83
2021/07/25 09:04:40;;;;;;;;;;;;;;;31.97;36.83;100820.81;4912631;29;20456;-84
2021/07/25 09:07:06;;;;;;;;;;;;;;;31.65;37.09;100823.41;4933798;29;19919;-85
2021/07/25 09:09:32;;;;;;;;;;;;;;;31.97;36.39;100820.81;4918477;29;19926;-83
2021/07/25 09:11:58;;;;;;;;;;;;;;;31.19;38.17;100815.72;4919928;29;19923;-85
2021/07/25 09:14:23;;;;;;;;;;;;;;;32.00;36.33;100826.00;4924508;29;19919;-88
2021/07/25 09:16:48;;;;;;;;;;;;;;;32.50;35.90;100819.94;4940201;29;19919;-82
2021/07/25 09:19:13;;;;;;;;;;;;;;;32.76;34.82;100824.66;4941030;29;20013;-85
2021/07/25 09:21:43;;;;;;;;;;;;;;;32.31;34.95;100822.56;4929092;29;19918;-85
2021/07/25 09:24:27;;;;;;;;;;;;;;;33.34;33.52;100820.09;4944454;29;19923;-84
2021/07/25 09:26:55;;;;;;;;;;;;;;;32.21;34.68;100826.88;4918234;29;19923;-86
2021/07/25 09:29:22;;;;;;;;;;;;;;;31.69;36.56;100830.28;4915013;29;19962;-83
2021/07/25 09:31:47;;;;;;;;;;;;;;;31.40;36.97;100823.97;4937578;29;19926;-90
2021/07/25 09:34:31;;;;;;;;;;;;;;;32.42;34.96;100822.97;4925377;29;19933;-85
2021/07/25 09:37:07;;;;;;;;;;;;;;;32.25;35.17;100834.63;4924660;29;19919;-88
2021/07/25 09:39:36;;;;;;;;;;;;;;;32.89;34.11;100832.13;4924202;29;20371;-90
2021/07/25 09:42:02;;;;;;;;;;;;;;;31.83;36.14;100833.06;4922968;29;20014;-84
2021/07/25 09:44:27;;;;;;;;;;;;;;;32.72;34.73;100842.97;4922489;29;19926;-84
2021/07/25 09:46:53;;;;;;;;;;;;;;;33.30;33.84;100827.22;4922203;29;20009;-85
2021/07/25 09:49:19;;;;;;;;;;;;;;;33.98;33.11;100825.69;4922995;29;20317;-86
2021/07/25 09:51:45;;;;;;;;;;;;;;;32.66;34.71;100824.25;4922228;29;19925;-88
2021/07/25 09:54:10;;;;;;;;;;;;;;;33.62;32.85;100824.44;4923475;29;20496;-85
2021/07/25 09:56:35;;;;;;;;;;;;;;;33.23;33.99;100830.06;4922134;29;19926;-89
2021/07/25 09:59:00;;;;;;;;;;;;;;;33.27;33.65;100830.47;4938922;29;19926;-87
2021/07/25 10:01:36;;;;;;;;;;;;;;;32.72;34.89;100830.88;4922022;29;19926;-87
2021/07/25 10:04:10;;;;;;;;;;;;;;;33.46;34.07;100829.50;4939825;29;20389;-87
2021/07/25 10:06:38;;;;;;;;;;;;;;;32.76;34.92;100829.38;4921826;29;19919;-85
2021/07/25 10:09:10;;;;;;;;;;;;;;;31.97;34.82;100829.22;4939365;29;19954;-85
2021/07/25 10:11:36;;;;;;;;;;;;;;;33.43;32.00;100823.47;4922941;29;20341;-87
2021/07/25 10:14:02;;;;;;;;;;;;;;;31.61;33.92;100834.16;4923019;29;19914;-87
2021/07/25 10:16:27;;;;;;;;;;;;;;;32.64;32.13;100829.16;4922731;29;19950;-85
2021/07/25 10:18:53;;;;;;;;;;;;;;;32.31;32.78;100822.56;4922515;29;19915;-86
2021/07/25 10:21:19;;;;;;;;;;;;;;;32.22;33.56;100822.97;4923069;29;19922;-88
2021/07/25 10:23:49;;;;;;;;;;;;;;;32.58;33.18;100827.22;4923289;29;19919;-88
2021/07/25 10:26:18;;;;;;;;;;;;;;;33.07;32.17;100817.38;4939580;29;19922;-87
2021/07/25 10:28:45;;;;;;;;;;;;;;;34.51;29.80;100813.97;4938889;29;19919;-88
2021/07/25 10:31:11;;;;;;;;;;;;;;;34.27;30.24;100815.72;4922786;29;19915;-87
2021/07/25 10:33:37;;;;;;;;;;;;;;;34.43;31.26;100817.09;4923699;29;19927;-88
2021/07/25 10:36:03;;;;;;;;;;;;;;;34.96;31.78;100810.84;4905917;29;20065;-89
2021/07/25 10:38:28;;;;;;;;;;;;;;;34.57;32.84;100826.22;4921751;29;19966;-87
2021/07/25 10:40:54;;;;;;;;;;;;;;;32.94;34.23;100823.06;4936452;29;19918;-86
2021/07/25 10:43:25;;;;;;;;;;;;;;;33.81;33.41;100815.03;4918159;29;20002;-85
2021/07/25 10:46:09;;;;;;;;;;;;;;;34.74;32.50;100815.22;4920961;29;19918;-86
2021/07/25 10:48:34;;;;;;;;;;;;;;;34.26;33.56;100817.69;4920494;29;19926;-84
2021/07/25 10:51:10;;;;;;;;;;;;;;;33.89;33.76;100817.53;4920451;29;19919;-86
2021/07/25 10:53:35;;;;;;;;;;;;;;;33.69;34.47;100819.63;4937693;29;19926;-86
2021/07/25 10:56:00;;;;;;;;;;;;;;;34.06;34.51;100817.84;4938811;29;19922;-86
2021/07/25 10:58:27;;;;;;;;;;;;;;;33.96;33.72;100822.28;4938107;29;19926;-89
2021/07/25 11:00:53;;;;;;;;;;;;;;;34.12;33.75;100832.91;4921331;29;19923;-85
2021/07/25 11:03:33;;;;;;;;;;;;;;;33.26;35.31;100828.75;4920594;29;19934;-86
2021/07/25 11:06:07;;;;;;;;;;;;;;;32.88;35.74;100838.81;4920353;29;20052;-84
2021/07/25 11:08:33;;;;;;;;;;;;;;;32.76;36.41;100837.78;4919896;29;20388;-86
2021/07/25 11:10:59;;;;;;;;;;;;;;;33.03;35.89;100835.72;4937457;29;19925;-86
2021/07/25 11:13:40;;;;;;;;;;;;;;;32.60;36.66;100831.53;4921684;29;19918;-83
2021/07/25 11:16:24;;;;;;;;;;;;;;;32.95;36.00;100827.59;4922218;29;19958;-85
2021/07/25 11:18:50;;;;;;;;;;;;;;;33.29;35.61;100825.50;4923741;29;19919;-83
2021/07/25 11:21:30;;;;;;;;;;;;;;;33.64;34.42;100825.94;4938339;29;20460;-85
2021/07/25 11:23:55;;;;;;;;;;;;;;;34.29;33.37;100824.81;4921442;29;19950;-87
2021/07/25 11:26:31;;;;;;;;;;;;;;;34.06;33.20;100831.00;4920433;29;19922;-86
2021/07/25 11:28:56;;;;;;;;;;;;;;;34.48;32.69;100824.81;4920781;29;19918;-86
2021/07/25 11:31:31;;;;;;;;;;;;;;;34.64;32.91;100831.78;4921030;29;19922;-86
2021/07/25 11:33:57;;;;;;;;;;;;;;;35.87;30.92;100821.25;4920354;29;20352;-84
2021/07/25 11:36:23;;;;;;;;;;;;;;;33.66;34.22;100814.47;4920748;29;19935;-85
2021/07/25 11:38:50;;;;;;;;;;;;;;;34.24;33.21;100822.66;4920620;29;19919;-85
2021/07/25 11:41:42;;;;;;;;;;;;;;;34.97;31.86;100821.03;4921608;29;20001;-87
2021/07/25 11:44:08;;;;;;;;;;;;;;;34.85;30.98;100822.06;4919592;29;19919;-86
2021/07/25 11:46:42;;;;;;;;;;;;;;;34.63;31.82;100824.44;4930122;29;19967;-86
2021/07/25 11:49:15;;;;;;;;;;;;;;;33.89;32.79;100825.13;4943845;29;20021;-83
2021/07/25 11:51:44;;;;;;;;;;;;;;;34.89;31.36;100826.09;4928356;29;19926;-85
2021/07/25 11:54:10;;;;;;;;;;;;;;;33.83;32.78;100824.06;4923772;29;19980;-86
2021/07/25 11:56:36;;;;;;;;;;;;;;;34.42;31.71;100823.78;4940247;29;19923;-87
2021/07/25 11:59:05;;;;;;;;;;;;;;;34.12;32.48;100820.81;4944482;29;19997;-86
2021/07/25 12:01:31;;;;;;;;;;;;;;;35.24;31.18;100831.91;4942689;29;20368;-85
2021/07/25 12:03:56;;;;;;;;;;;;;;;35.01;30.85;100827.00;4954268;29;19950;-87
2021/07/25 12:06:22;;;;;;;;;;;;;;;35.58;30.32;100823.00;4933709;29;19918;-81
2021/07/25 12:09:02;;;;;;;;;;;;;;;36.40;29.45;100824.28;4934093;29;19918;-85
2021/07/25 12:11:27;;;;;;;;;;;;;;;36.16;29.56;100827.06;4932287;29;19923;-85
2021/07/25 12:13:53;;;;;;;;;;;;;;;34.03;32.10;100825.84;4946737;29;19918;-83
2021/07/25 12:16:18;;;;;;;;;;;;;;;33.10;33.78;100825.34;4935940;29;20425;-84
2021/07/25 12:18:43;;;;;;;;;;;;;;;34.40;32.41;100820.38;4919110;29;19926;-86
2021/07/25 12:21:29;;;;;;;;;;;;;;;34.43;32.40;100819.91;4937875;29;20266;-84
2021/07/25 12:23:55;;;;;;;;;;;;;;;35.61;30.44;100820.56;4920918;29;19925;-85
2021/07/25 12:26:36;;;;;;;;;;;;;;;35.08;31.47;100819.34;4940405;29;19914;-84
2021/07/25 12:29:01;;;;;;;;;;;;;;;34.67;31.99;100817.28;4949836;29;19906;-85
2021/07/25 12:31:27;;;;;;;;;;;;;;;35.36;30.08;100819.88;4959009;28;19919;-87
2021/07/25 12:34:02;;;;;;;;;;;;;;;35.45;29.29;100821.25;4941234;29;19977;-85
2021/07/25 12:36:33;;;;;;;;;;;;;;;34.49;31.63;100821.78;4933846;29;19914;-83